KLM621 LIRF-EHAM
Flight info
| Callsign | KLM621 |
|---|---|
| Flight time | 1h 51m |
| Altitude | 34000 |
| Route | XENOL5AXNEMBO7A/25 NEMBO GOVGO AOSTA ORSUD MOLUS GILIR PENDU IXILU EPL ROUSY IDOSA KOMOB BUB Y28 HELEN HELE2A |
| Aircraft | A321/M-V/N |
Departure
| Time | 2026-05-06 16:47 |
|---|---|
| Airport | Rome–Fiumicino Leonardo da Vinci International Airport (LIRF) |
Arrival
| Time | 2026-05-06 18:39 |
|---|---|
| Airport | Amsterdam Airport Schiphol (EHAM) |
| Time | Latitude | Longitude | Altitude | Speed | Heading |
|---|---|---|---|---|---|
| 2026-05-06 16:18 | 41.79658 | 12.24635 | 14 ft | 0 kts | 73° |
| 2026-05-06 16:36 | 41.79657 | 12.24633 | 14 ft | 2 kts | 72° |
| 2026-05-06 16:36 | 41.79650 | 12.24600 | 15 ft | 4 kts | 72° |
| 2026-05-06 16:37 | 41.79640 | 12.24567 | 15 ft | 4 kts | 53° |
| 2026-05-06 16:37 | 41.79621 | 12.24545 | 17 ft | 4 kts | 17° |
| 2026-05-06 16:37 | 41.79601 | 12.24543 | 18 ft | 1 kts | 340° |
| 2026-05-06 16:37 | 41.79597 | 12.24545 | 17 ft | 0 kts | 340° |
| 2026-05-06 16:40 | 41.79618 | 12.24535 | 14 ft | 9 kts | 340° |
| 2026-05-06 16:40 | 41.79702 | 12.24492 | 13 ft | 14 kts | 339° |
| 2026-05-06 16:40 | 41.79787 | 12.24449 | 14 ft | 12 kts | 339° |
| 2026-05-06 16:41 | 41.79871 | 12.24430 | 12 ft | 14 kts | 14° |
| 2026-05-06 16:41 | 41.79926 | 12.24533 | 11 ft | 13 kts | 69° |
| 2026-05-06 16:41 | 41.79955 | 12.24638 | 13 ft | 11 kts | 69° |
| 2026-05-06 16:41 | 41.79979 | 12.24723 | 14 ft | 11 kts | 69° |
| 2026-05-06 16:42 | 41.80037 | 12.24787 | 14 ft | 12 kts | 356° |
| 2026-05-06 16:42 | 41.80133 | 12.24779 | 13 ft | 15 kts | 11° |
| 2026-05-06 16:42 | 41.80195 | 12.24855 | 15 ft | 10 kts | 71° |
| 2026-05-06 16:42 | 41.80203 | 12.24948 | 17 ft | 12 kts | 86° |
| 2026-05-06 16:43 | 41.80214 | 12.25094 | 17 ft | 20 kts | 78° |
| 2026-05-06 16:43 | 41.80265 | 12.25295 | 19 ft | 26 kts | 69° |
| 2026-05-06 16:43 | 41.80335 | 12.25541 | 15 ft | 29 kts | 69° |
| 2026-05-06 16:43 | 41.80403 | 12.25787 | 15 ft | 28 kts | 70° |
| 2026-05-06 16:44 | 41.80467 | 12.26028 | 13 ft | 27 kts | 70° |
| 2026-05-06 16:44 | 41.80530 | 12.26255 | 13 ft | 25 kts | 70° |
| 2026-05-06 16:44 | 41.80586 | 12.26462 | 15 ft | 23 kts | 69° |
| 2026-05-06 16:44 | 41.80641 | 12.26662 | 13 ft | 23 kts | 70° |
| 2026-05-06 16:45 | 41.80695 | 12.26859 | 9 ft | 23 kts | 69° |
| 2026-05-06 16:45 | 41.80746 | 12.27009 | 9 ft | 12 kts | 49° |
| 2026-05-06 16:45 | 41.80819 | 12.27037 | 8 ft | 11 kts | 346° |
| 2026-05-06 16:45 | 41.80860 | 12.27017 | 8 ft | 3 kts | 339° |
| 2026-05-06 16:46 | 41.80891 | 12.27001 | 9 ft | 8 kts | 339° |
| 2026-05-06 16:46 | 41.80953 | 12.26952 | 9 ft | 10 kts | 305° |
| 2026-05-06 16:46 | 41.80937 | 12.26853 | 10 ft | 18 kts | 250° |
| 2026-05-06 16:46 | 41.80820 | 12.26429 | 16 ft | 82 kts | 249° |
| 2026-05-06 16:47 | 41.80553 | 12.25465 | 14 ft | 136 kts | 250° |
| 2026-05-06 16:47 | 41.80176 | 12.24090 | 53 ft | 173 kts | 249° |
| 2026-05-06 16:47 | 41.79793 | 12.22624 | 751 ft | 164 kts | 246° |
| 2026-05-06 16:47 | 41.79407 | 12.21189 | 1308 ft | 169 kts | 250° |
| 2026-05-06 16:48 | 41.79280 | 12.19525 | 1491 ft | 192 kts | 263° |
| 2026-05-06 16:48 | 41.79226 | 12.17654 | 1616 ft | 210 kts | 264° |
| 2026-05-06 16:48 | 41.79172 | 12.15635 | 1750 ft | 231 kts | 264° |
| 2026-05-06 16:48 | 41.79111 | 12.13376 | 1987 ft | 252 kts | 264° |
| 2026-05-06 16:49 | 41.79050 | 12.10997 | 2627 ft | 257 kts | 265° |
| 2026-05-06 16:49 | 41.78999 | 12.08584 | 3338 ft | 260 kts | 265° |
| 2026-05-06 16:49 | 41.78986 | 12.06149 | 4064 ft | 262 kts | 267° |
| 2026-05-06 16:49 | 41.78991 | 12.03696 | 4807 ft | 264 kts | 267° |
| 2026-05-06 16:50 | 41.79001 | 12.01237 | 5542 ft | 264 kts | 267° |
| 2026-05-06 16:50 | 41.79008 | 11.98761 | 6245 ft | 266 kts | 267° |
| 2026-05-06 16:50 | 41.79011 | 11.96273 | 6926 ft | 268 kts | 267° |
| 2026-05-06 16:50 | 41.79008 | 11.94622 | 7371 ft | 268 kts | 267° |
| 2026-05-06 16:51 | 41.78997 | 11.91301 | 8234 ft | 271 kts | 267° |
| 2026-05-06 16:51 | 41.78986 | 11.88770 | 8880 ft | 273 kts | 267° |
| 2026-05-06 16:51 | 41.78976 | 11.86215 | 9479 ft | 277 kts | 267° |
| 2026-05-06 16:51 | 41.78966 | 11.83612 | 10051 ft | 281 kts | 267° |
| 2026-05-06 16:52 | 41.78953 | 11.80926 | 10270 ft | 299 kts | 267° |
| 2026-05-06 16:52 | 41.78940 | 11.78054 | 10399 ft | 318 kts | 268° |
| 2026-05-06 16:52 | 41.78926 | 11.75001 | 10540 ft | 337 kts | 268° |
| 2026-05-06 16:52 | 41.78911 | 11.71817 | 10945 ft | 345 kts | 268° |
| 2026-05-06 16:53 | 41.78897 | 11.68593 | 11513 ft | 349 kts | 268° |
| 2026-05-06 16:53 | 41.78888 | 11.66435 | 11938 ft | 351 kts | 268° |
| 2026-05-06 16:53 | 41.78866 | 11.62086 | 12774 ft | 355 kts | 268° |
| 2026-05-06 16:53 | 41.78981 | 11.58765 | 13323 ft | 360 kts | 276° |
| 2026-05-06 16:54 | 41.79616 | 11.55486 | 13835 ft | 367 kts | 289° |
| 2026-05-06 16:54 | 41.80798 | 11.52423 | 14315 ft | 374 kts | 302° |
| 2026-05-06 16:54 | 41.82452 | 11.49699 | 14803 ft | 379 kts | 309° |
| 2026-05-06 16:54 | 41.84207 | 11.47051 | 15339 ft | 380 kts | 308° |
| 2026-05-06 16:55 | 41.85368 | 11.45289 | 15687 ft | 381 kts | 308° |
| 2026-05-06 16:55 | 41.87126 | 11.42608 | 16155 ft | 384 kts | 308° |
| 2026-05-06 16:55 | 41.89472 | 11.39013 | 16762 ft | 389 kts | 307° |
| 2026-05-06 16:55 | 41.91263 | 11.36264 | 17210 ft | 392 kts | 307° |
| 2026-05-06 16:56 | 41.93065 | 11.33492 | 17651 ft | 396 kts | 307° |
| 2026-05-06 16:56 | 41.94290 | 11.31605 | 17944 ft | 398 kts | 307° |
| 2026-05-06 16:56 | 41.96094 | 11.28826 | 18358 ft | 401 kts | 307° |
| 2026-05-06 16:56 | 41.97935 | 11.25995 | 18759 ft | 403 kts | 307° |
| 2026-05-06 16:57 | 42.00411 | 11.22189 | 19330 ft | 404 kts | 306° |
| 2026-05-06 16:57 | 42.01639 | 11.20304 | 19620 ft | 405 kts | 306° |
| 2026-05-06 16:57 | 42.03496 | 11.17448 | 20053 ft | 406 kts | 306° |
| 2026-05-06 16:57 | 42.05354 | 11.14587 | 20482 ft | 407 kts | 306° |
| 2026-05-06 16:58 | 42.07819 | 11.10781 | 21113 ft | 408 kts | 306° |
| 2026-05-06 16:58 | 42.09077 | 11.08836 | 21414 ft | 409 kts | 305° |
| 2026-05-06 16:58 | 42.10944 | 11.05944 | 21848 ft | 410 kts | 305° |
| 2026-05-06 16:58 | 42.12792 | 11.03080 | 22258 ft | 411 kts | 305° |
| 2026-05-06 16:59 | 42.14667 | 11.00169 | 22661 ft | 412 kts | 305° |
| 2026-05-06 16:59 | 42.16549 | 10.97251 | 23064 ft | 413 kts | 305° |
| 2026-05-06 16:59 | 42.18440 | 10.94318 | 23462 ft | 414 kts | 304° |
| 2026-05-06 16:59 | 42.20331 | 10.91376 | 23786 ft | 416 kts | 304° |
| 2026-05-06 17:00 | 42.22227 | 10.88419 | 24090 ft | 418 kts | 304° |
| 2026-05-06 17:00 | 42.24130 | 10.85448 | 24378 ft | 420 kts | 304° |
| 2026-05-06 17:00 | 42.26044 | 10.82465 | 24668 ft | 421 kts | 305° |
| 2026-05-06 17:00 | 42.28117 | 10.79689 | 24942 ft | 431 kts | 314° |
| 2026-05-06 17:01 | 42.30598 | 10.77341 | 25210 ft | 441 kts | 324° |
| 2026-05-06 17:01 | 42.33408 | 10.75565 | 25476 ft | 452 kts | 334° |
| 2026-05-06 17:01 | 42.36373 | 10.74119 | 25738 ft | 454 kts | 334° |
| 2026-05-06 17:01 | 42.39353 | 10.72660 | 25993 ft | 456 kts | 334° |
| 2026-05-06 17:02 | 42.42348 | 10.71187 | 26261 ft | 458 kts | 334° |
| 2026-05-06 17:02 | 42.45350 | 10.69705 | 26524 ft | 460 kts | 334° |
| 2026-05-06 17:02 | 42.48362 | 10.68213 | 26787 ft | 462 kts | 333° |
| 2026-05-06 17:02 | 42.51345 | 10.66732 | 27033 ft | 464 kts | 333° |
| 2026-05-06 17:03 | 42.54381 | 10.65221 | 27286 ft | 466 kts | 333° |
| 2026-05-06 17:03 | 42.57431 | 10.63700 | 27515 ft | 468 kts | 333° |
| 2026-05-06 17:03 | 42.60496 | 10.62173 | 27755 ft | 470 kts | 333° |
| 2026-05-06 17:03 | 42.63567 | 10.60640 | 27989 ft | 472 kts | 333° |
| 2026-05-06 17:04 | 42.66649 | 10.59100 | 28238 ft | 472 kts | 333° |
| 2026-05-06 17:04 | 42.69567 | 10.57155 | 28512 ft | 460 kts | 318° |
| 2026-05-06 17:04 | 42.71957 | 10.54367 | 28759 ft | 451 kts | 309° |
| 2026-05-06 17:04 | 42.74454 | 10.51708 | 29021 ft | 465 kts | 323° |
| 2026-05-06 17:05 | 42.77481 | 10.49987 | 29279 ft | 479 kts | 336° |
| 2026-05-06 17:05 | 42.80637 | 10.48688 | 29532 ft | 480 kts | 336° |
| 2026-05-06 17:05 | 42.83833 | 10.47384 | 29778 ft | 479 kts | 336° |
| 2026-05-06 17:05 | 42.87023 | 10.46087 | 30028 ft | 479 kts | 336° |
| 2026-05-06 17:06 | 42.90220 | 10.44788 | 30255 ft | 478 kts | 336° |
| 2026-05-06 17:06 | 42.93404 | 10.43487 | 30457 ft | 478 kts | 336° |
| 2026-05-06 17:06 | 42.96589 | 10.42178 | 30690 ft | 479 kts | 336° |
| 2026-05-06 17:06 | 42.99783 | 10.40856 | 30912 ft | 479 kts | 336° |
| 2026-05-06 17:07 | 43.02976 | 10.39532 | 31138 ft | 480 kts | 336° |
| 2026-05-06 17:07 | 43.06170 | 10.38207 | 31360 ft | 480 kts | 336° |
| 2026-05-06 17:07 | 43.09323 | 10.36897 | 31586 ft | 480 kts | 336° |
| 2026-05-06 17:07 | 43.12517 | 10.35573 | 31822 ft | 480 kts | 336° |
| 2026-05-06 17:08 | 43.15659 | 10.34103 | 32052 ft | 474 kts | 329° |
| 2026-05-06 17:08 | 43.18574 | 10.32104 | 32312 ft | 465 kts | 321° |
| 2026-05-06 17:08 | 43.21206 | 10.29613 | 32546 ft | 456 kts | 313° |
| 2026-05-06 17:08 | 43.23691 | 10.26910 | 32793 ft | 456 kts | 313° |
| 2026-05-06 17:09 | 43.26180 | 10.24213 | 33020 ft | 456 kts | 314° |
| 2026-05-06 17:09 | 43.28677 | 10.21518 | 33265 ft | 456 kts | 314° |
| 2026-05-06 17:09 | 43.31139 | 10.18866 | 33558 ft | 455 kts | 314° |
| 2026-05-06 17:09 | 43.33622 | 10.16189 | 33788 ft | 454 kts | 313° |
| 2026-05-06 17:10 | 43.36103 | 10.13507 | 33914 ft | 453 kts | 313° |
| 2026-05-06 17:10 | 43.41045 | 10.08145 | 34172 ft | 452 kts | 313° |
| 2026-05-06 17:10 | 43.43512 | 10.05461 | 34396 ft | 452 kts | 313° |
| 2026-05-06 17:11 | 43.45974 | 10.02779 | 34620 ft | 451 kts | 313° |
| 2026-05-06 17:11 | 43.48430 | 10.00099 | 34829 ft | 450 kts | 313° |
| 2026-05-06 17:11 | 43.50849 | 9.97456 | 35046 ft | 449 kts | 313° |
| 2026-05-06 17:11 | 43.53295 | 9.94784 | 35254 ft | 449 kts | 313° |
| 2026-05-06 17:12 | 43.55740 | 9.92122 | 35451 ft | 448 kts | 314° |
| 2026-05-06 17:12 | 43.58182 | 9.89464 | 35660 ft | 447 kts | 314° |
| 2026-05-06 17:12 | 43.60625 | 9.86799 | 35867 ft | 446 kts | 313° |
| 2026-05-06 17:13 | 43.65483 | 9.81466 | 35913 ft | 447 kts | 313° |
| 2026-05-06 17:13 | 43.70342 | 9.76117 | 35917 ft | 447 kts | 313° |
| 2026-05-06 17:14 | 43.75169 | 9.70795 | 35914 ft | 447 kts | 313° |
| 2026-05-06 17:14 | 43.80027 | 9.65427 | 35908 ft | 447 kts | 313° |
| 2026-05-06 17:15 | 43.84888 | 9.60056 | 35915 ft | 447 kts | 313° |
| 2026-05-06 17:15 | 43.89751 | 9.54673 | 35918 ft | 447 kts | 313° |
| 2026-05-06 17:16 | 43.94606 | 9.49276 | 35909 ft | 447 kts | 313° |
| 2026-05-06 17:16 | 43.99427 | 9.43904 | 35945 ft | 448 kts | 313° |
| 2026-05-06 17:17 | 44.04292 | 9.38490 | 35940 ft | 448 kts | 313° |
| 2026-05-06 17:17 | 44.09146 | 9.33066 | 35923 ft | 448 kts | 313° |
| 2026-05-06 17:18 | 44.14001 | 9.27624 | 35913 ft | 448 kts | 313° |
| 2026-05-06 17:18 | 44.18851 | 9.22181 | 35898 ft | 448 kts | 313° |
| 2026-05-06 17:19 | 44.23671 | 9.16764 | 35898 ft | 448 kts | 313° |
| 2026-05-06 17:19 | 44.28519 | 9.11292 | 35901 ft | 448 kts | 313° |
| 2026-05-06 17:20 | 44.33370 | 9.05809 | 35893 ft | 448 kts | 313° |
| 2026-05-06 17:20 | 44.38203 | 9.00334 | 35888 ft | 447 kts | 313° |
| 2026-05-06 17:21 | 44.43006 | 8.94876 | 35894 ft | 448 kts | 313° |
| 2026-05-06 17:21 | 44.47843 | 8.89370 | 35896 ft | 448 kts | 313° |
| 2026-05-06 17:22 | 44.52679 | 8.83860 | 35893 ft | 448 kts | 313° |
| 2026-05-06 17:22 | 44.57513 | 8.78337 | 35879 ft | 449 kts | 313° |
| 2026-05-06 17:23 | 44.62316 | 8.72833 | 35861 ft | 449 kts | 313° |
| 2026-05-06 17:23 | 44.67157 | 8.67277 | 35887 ft | 449 kts | 313° |
| 2026-05-06 17:24 | 44.71989 | 8.61725 | 35842 ft | 448 kts | 313° |
| 2026-05-06 17:24 | 44.76815 | 8.56162 | 35832 ft | 448 kts | 313° |
| 2026-05-06 17:25 | 44.81608 | 8.50629 | 35822 ft | 448 kts | 313° |
| 2026-05-06 17:25 | 44.86428 | 8.45054 | 35821 ft | 448 kts | 313° |
| 2026-05-06 17:26 | 44.91244 | 8.39466 | 35857 ft | 449 kts | 313° |
| 2026-05-06 17:26 | 44.96064 | 8.33866 | 35815 ft | 448 kts | 313° |
| 2026-05-06 17:27 | 45.00875 | 8.28254 | 35813 ft | 449 kts | 313° |
| 2026-05-06 17:27 | 45.05685 | 8.22619 | 35814 ft | 449 kts | 313° |
| 2026-05-06 17:28 | 45.10472 | 8.17013 | 35837 ft | 450 kts | 313° |
| 2026-05-06 17:28 | 45.15298 | 8.11365 | 35828 ft | 450 kts | 313° |
| 2026-05-06 17:29 | 45.20126 | 8.05692 | 35834 ft | 451 kts | 313° |
| 2026-05-06 17:29 | 45.24955 | 7.99996 | 35827 ft | 452 kts | 313° |
| 2026-05-06 17:30 | 45.29752 | 7.94324 | 35824 ft | 452 kts | 313° |
| 2026-05-06 17:30 | 45.34588 | 7.88598 | 35845 ft | 453 kts | 313° |
| 2026-05-06 17:31 | 45.39425 | 7.82859 | 35840 ft | 453 kts | 313° |
| 2026-05-06 17:31 | 45.44262 | 7.77099 | 35862 ft | 453 kts | 313° |
| 2026-05-06 17:32 | 45.49064 | 7.71369 | 35863 ft | 454 kts | 313° |
| 2026-05-06 17:32 | 45.53905 | 7.65591 | 35866 ft | 454 kts | 314° |
| 2026-05-06 17:33 | 45.58749 | 7.59789 | 35864 ft | 455 kts | 313° |
| 2026-05-06 17:33 | 45.63590 | 7.53976 | 35871 ft | 455 kts | 313° |
| 2026-05-06 17:34 | 45.68425 | 7.48141 | 35873 ft | 455 kts | 313° |
| 2026-05-06 17:34 | 45.73231 | 7.42333 | 35905 ft | 455 kts | 314° |
| 2026-05-06 17:35 | 45.78077 | 7.36473 | 35893 ft | 457 kts | 314° |
| 2026-05-06 17:35 | 45.83068 | 7.30784 | 35886 ft | 460 kts | 318° |
| 2026-05-06 17:36 | 45.90997 | 7.22941 | 35894 ft | 463 kts | 320° |
| 2026-05-06 17:36 | 45.96254 | 7.17744 | 35906 ft | 461 kts | 319° |
| 2026-05-06 17:37 | 46.01483 | 7.12389 | 35967 ft | 462 kts | 319° |
| 2026-05-06 17:37 | 46.06703 | 7.06997 | 35959 ft | 462 kts | 319° |
| 2026-05-06 17:38 | 46.11928 | 7.01609 | 35953 ft | 462 kts | 319° |
| 2026-05-06 17:38 | 46.17154 | 6.96215 | 35954 ft | 460 kts | 319° |
| 2026-05-06 17:39 | 46.22334 | 6.90871 | 35953 ft | 462 kts | 319° |
| 2026-05-06 17:39 | 46.27574 | 6.85458 | 35955 ft | 463 kts | 319° |
| 2026-05-06 17:40 | 46.32814 | 6.80011 | 35969 ft | 463 kts | 320° |
| 2026-05-06 17:40 | 46.38002 | 6.74608 | 35959 ft | 462 kts | 320° |
| 2026-05-06 17:41 | 46.43227 | 6.69159 | 35952 ft | 463 kts | 321° |
| 2026-05-06 17:41 | 46.48951 | 6.64742 | 35945 ft | 468 kts | 330° |
| 2026-05-06 17:42 | 46.54818 | 6.60635 | 35939 ft | 468 kts | 330° |
| 2026-05-06 17:42 | 46.60641 | 6.56531 | 35936 ft | 468 kts | 330° |
| 2026-05-06 17:43 | 46.66496 | 6.52380 | 35940 ft | 468 kts | 330° |
| 2026-05-06 17:43 | 46.72352 | 6.48218 | 35959 ft | 468 kts | 330° |
| 2026-05-06 17:44 | 46.78195 | 6.44065 | 35945 ft | 467 kts | 330° |
| 2026-05-06 17:44 | 46.84021 | 6.39901 | 35944 ft | 466 kts | 330° |
| 2026-05-06 17:45 | 46.89806 | 6.35770 | 35954 ft | 466 kts | 331° |
| 2026-05-06 17:45 | 46.95626 | 6.31616 | 35953 ft | 465 kts | 330° |
| 2026-05-06 17:46 | 47.01444 | 6.27443 | 35954 ft | 465 kts | 330° |
| 2026-05-06 17:46 | 47.07255 | 6.23265 | 35945 ft | 465 kts | 331° |
| 2026-05-06 17:47 | 47.13032 | 6.19109 | 35944 ft | 465 kts | 330° |
| 2026-05-06 17:47 | 47.18841 | 6.14915 | 35953 ft | 465 kts | 331° |
| 2026-05-06 17:48 | 47.24649 | 6.10711 | 35950 ft | 465 kts | 331° |
| 2026-05-06 17:48 | 47.30450 | 6.06512 | 35944 ft | 465 kts | 332° |
| 2026-05-06 17:49 | 47.36630 | 6.03662 | 35933 ft | 469 kts | 351° |
| 2026-05-06 17:49 | 47.43121 | 6.03453 | 35924 ft | 471 kts | 359° |
| 2026-05-06 17:50 | 47.49685 | 6.03611 | 35922 ft | 472 kts | 359° |
| 2026-05-06 17:50 | 47.56245 | 6.03747 | 35921 ft | 472 kts | 359° |
| 2026-05-06 17:51 | 47.62814 | 6.03888 | 35923 ft | 472 kts | 359° |
| 2026-05-06 17:51 | 47.69377 | 6.04030 | 35919 ft | 472 kts | 359° |
| 2026-05-06 17:52 | 47.75896 | 6.04174 | 35919 ft | 471 kts | 359° |
| 2026-05-06 17:52 | 47.82452 | 6.04370 | 35917 ft | 471 kts | 360° |
| 2026-05-06 17:53 | 47.89006 | 6.04592 | 35919 ft | 471 kts | 360° |
| 2026-05-06 17:53 | 47.95562 | 6.04806 | 35914 ft | 471 kts | 360° |
| 2026-05-06 17:54 | 48.02062 | 6.05008 | 35904 ft | 470 kts | 360° |
| 2026-05-06 17:54 | 48.08605 | 6.05211 | 35897 ft | 470 kts | 360° |
| 2026-05-06 17:55 | 48.15141 | 6.05412 | 35891 ft | 470 kts | 360° |
| 2026-05-06 17:55 | 48.21671 | 6.05621 | 35886 ft | 469 kts | 0° |
| 2026-05-06 17:56 | 48.28158 | 6.05836 | 35889 ft | 469 kts | 0° |
| 2026-05-06 17:56 | 48.34682 | 6.05992 | 35887 ft | 468 kts | 354° |
| 2026-05-06 17:57 | 48.41024 | 6.04082 | 35883 ft | 465 kts | 345° |
| 2026-05-06 17:57 | 48.47298 | 6.01754 | 35891 ft | 464 kts | 345° |
| 2026-05-06 17:58 | 48.53526 | 5.99417 | 35891 ft | 464 kts | 345° |
| 2026-05-06 17:58 | 48.59792 | 5.97071 | 35886 ft | 464 kts | 345° |
| 2026-05-06 17:59 | 48.66059 | 5.94730 | 35884 ft | 464 kts | 345° |
| 2026-05-06 17:59 | 48.72330 | 5.92374 | 35884 ft | 464 kts | 345° |
| 2026-05-06 18:00 | 48.78594 | 5.90019 | 35885 ft | 464 kts | 345° |
| 2026-05-06 18:00 | 48.84816 | 5.87664 | 35882 ft | 464 kts | 345° |
| 2026-05-06 18:01 | 48.91078 | 5.85294 | 35883 ft | 464 kts | 345° |
| 2026-05-06 18:01 | 48.97344 | 5.82918 | 35882 ft | 464 kts | 344° |
| 2026-05-06 18:02 | 49.03604 | 5.80534 | 35889 ft | 464 kts | 345° |
| 2026-05-06 18:02 | 49.09870 | 5.78148 | 35886 ft | 464 kts | 344° |
| 2026-05-06 18:03 | 49.16127 | 5.75755 | 35882 ft | 464 kts | 344° |
| 2026-05-06 18:03 | 49.22339 | 5.73377 | 35895 ft | 463 kts | 345° |
| 2026-05-06 18:04 | 49.28579 | 5.70981 | 35887 ft | 462 kts | 345° |
| 2026-05-06 18:04 | 49.34808 | 5.68579 | 35887 ft | 461 kts | 345° |
| 2026-05-06 18:05 | 49.41035 | 5.66170 | 35890 ft | 461 kts | 344° |
| 2026-05-06 18:05 | 49.47213 | 5.63775 | 35887 ft | 461 kts | 345° |
| 2026-05-06 18:06 | 49.53391 | 5.61156 | 35887 ft | 459 kts | 334° |
| 2026-05-06 18:06 | 49.59115 | 5.56872 | 35885 ft | 458 kts | 332° |
| 2026-05-06 18:07 | 49.64819 | 5.52504 | 35889 ft | 458 kts | 332° |
| 2026-05-06 18:07 | 49.70520 | 5.48139 | 35890 ft | 457 kts | 332° |
| 2026-05-06 18:08 | 49.76184 | 5.43801 | 35896 ft | 457 kts | 332° |
| 2026-05-06 18:08 | 49.81880 | 5.39425 | 35906 ft | 457 kts | 332° |
| 2026-05-06 18:09 | 49.87567 | 5.35038 | 35908 ft | 456 kts | 332° |
| 2026-05-06 18:09 | 49.93237 | 5.30650 | 35906 ft | 455 kts | 332° |
| 2026-05-06 18:10 | 49.98898 | 5.26269 | 35914 ft | 454 kts | 332° |
| 2026-05-06 18:10 | 50.04509 | 5.21907 | 35918 ft | 454 kts | 332° |
| 2026-05-06 18:11 | 50.10161 | 5.17500 | 35909 ft | 454 kts | 332° |
| 2026-05-06 18:11 | 50.15801 | 5.13091 | 35910 ft | 453 kts | 332° |
| 2026-05-06 18:12 | 50.21435 | 5.08678 | 35907 ft | 453 kts | 332° |
| 2026-05-06 18:12 | 50.27029 | 5.04291 | 35915 ft | 453 kts | 332° |
| 2026-05-06 18:13 | 50.32658 | 4.99859 | 35915 ft | 452 kts | 332° |
| 2026-05-06 18:13 | 50.38274 | 4.95413 | 35912 ft | 452 kts | 332° |
| 2026-05-06 18:14 | 50.43887 | 4.90961 | 35914 ft | 452 kts | 332° |
| 2026-05-06 18:14 | 50.49503 | 4.86497 | 35914 ft | 452 kts | 331° |
| 2026-05-06 18:15 | 50.55072 | 4.82064 | 35908 ft | 452 kts | 331° |
| 2026-05-06 18:15 | 50.57882 | 4.79830 | 35726 ft | 453 kts | 331° |
| 2026-05-06 18:15 | 50.60689 | 4.77597 | 35195 ft | 452 kts | 332° |
| 2026-05-06 18:16 | 50.63506 | 4.75350 | 34447 ft | 456 kts | 332° |
| 2026-05-06 18:16 | 50.66342 | 4.73081 | 33649 ft | 459 kts | 332° |
| 2026-05-06 18:16 | 50.69098 | 4.70871 | 32795 ft | 461 kts | 332° |
| 2026-05-06 18:16 | 50.71965 | 4.68570 | 31943 ft | 463 kts | 332° |
| 2026-05-06 18:17 | 50.74841 | 4.66257 | 31112 ft | 465 kts | 332° |
| 2026-05-06 18:17 | 50.77723 | 4.63933 | 30312 ft | 465 kts | 332° |
| 2026-05-06 18:17 | 50.80571 | 4.61632 | 29442 ft | 466 kts | 332° |
| 2026-05-06 18:17 | 50.83454 | 4.59299 | 28567 ft | 465 kts | 332° |
| 2026-05-06 18:18 | 50.86382 | 4.57128 | 27704 ft | 465 kts | 340° |
| 2026-05-06 18:18 | 50.89496 | 4.55740 | 26882 ft | 465 kts | 344° |
| 2026-05-06 18:18 | 50.92626 | 4.54450 | 26077 ft | 464 kts | 344° |
| 2026-05-06 18:18 | 50.95754 | 4.53176 | 25296 ft | 463 kts | 344° |
| 2026-05-06 18:19 | 50.98872 | 4.51916 | 24537 ft | 462 kts | 344° |
| 2026-05-06 18:19 | 51.01982 | 4.50655 | 23790 ft | 460 kts | 344° |
| 2026-05-06 18:19 | 51.05038 | 4.49407 | 23021 ft | 458 kts | 344° |
| 2026-05-06 18:19 | 51.08106 | 4.48152 | 22487 ft | 450 kts | 344° |
| 2026-05-06 18:20 | 51.11096 | 4.46924 | 22131 ft | 439 kts | 344° |
| 2026-05-06 18:20 | 51.14032 | 4.45712 | 21783 ft | 434 kts | 344° |
| 2026-05-06 18:20 | 51.16944 | 4.44509 | 21442 ft | 431 kts | 344° |
| 2026-05-06 18:20 | 51.19837 | 4.43314 | 21105 ft | 429 kts | 344° |
| 2026-05-06 18:21 | 51.22719 | 4.42118 | 20782 ft | 426 kts | 344° |
| 2026-05-06 18:21 | 51.25581 | 4.40925 | 20508 ft | 424 kts | 344° |
| 2026-05-06 18:21 | 51.28424 | 4.39739 | 20228 ft | 422 kts | 344° |
| 2026-05-06 18:21 | 51.31259 | 4.38558 | 19941 ft | 420 kts | 344° |
| 2026-05-06 18:22 | 51.34042 | 4.37404 | 19495 ft | 417 kts | 344° |
| 2026-05-06 18:22 | 51.36838 | 4.36249 | 19080 ft | 413 kts | 345° |
| 2026-05-06 18:22 | 51.39611 | 4.35099 | 18672 ft | 410 kts | 345° |
| 2026-05-06 18:22 | 51.42367 | 4.33950 | 18270 ft | 408 kts | 344° |
| 2026-05-06 18:23 | 51.45101 | 4.32803 | 17816 ft | 405 kts | 344° |
| 2026-05-06 18:23 | 51.47815 | 4.31659 | 17350 ft | 402 kts | 345° |
| 2026-05-06 18:23 | 51.50512 | 4.30520 | 16906 ft | 400 kts | 344° |
| 2026-05-06 18:23 | 51.53197 | 4.29388 | 16465 ft | 397 kts | 343° |
| 2026-05-06 18:24 | 51.55859 | 4.28266 | 16022 ft | 394 kts | 344° |
| 2026-05-06 18:24 | 51.58502 | 4.27153 | 15587 ft | 392 kts | 343° |
| 2026-05-06 18:24 | 51.61096 | 4.26058 | 15160 ft | 389 kts | 344° |
| 2026-05-06 18:24 | 51.63708 | 4.24954 | 14742 ft | 386 kts | 344° |
| 2026-05-06 18:25 | 51.66282 | 4.23873 | 14327 ft | 379 kts | 343° |
| 2026-05-06 18:25 | 51.68811 | 4.22809 | 13911 ft | 373 kts | 343° |
| 2026-05-06 18:25 | 51.71304 | 4.21756 | 13480 ft | 367 kts | 343° |
| 2026-05-06 18:25 | 51.73755 | 4.20719 | 13032 ft | 362 kts | 344° |
| 2026-05-06 18:26 | 51.76167 | 4.19696 | 12579 ft | 354 kts | 343° |
| 2026-05-06 18:26 | 51.78506 | 4.18702 | 12181 ft | 341 kts | 344° |
| 2026-05-06 18:26 | 51.80765 | 4.17742 | 11793 ft | 331 kts | 345° |
| 2026-05-06 18:26 | 51.82957 | 4.16814 | 11413 ft | 321 kts | 345° |
| 2026-05-06 18:27 | 51.85052 | 4.15929 | 11043 ft | 311 kts | 345° |
| 2026-05-06 18:27 | 51.87094 | 4.15064 | 10664 ft | 297 kts | 345° |
| 2026-05-06 18:27 | 51.89065 | 4.14366 | 10305 ft | 286 kts | 355° |
| 2026-05-06 18:27 | 51.91042 | 4.14540 | 9938 ft | 285 kts | 12° |
| 2026-05-06 18:28 | 51.92891 | 4.15674 | 9546 ft | 285 kts | 29° |
| 2026-05-06 18:28 | 51.94463 | 4.17612 | 9143 ft | 284 kts | 40° |
| 2026-05-06 18:28 | 51.95954 | 4.19694 | 8744 ft | 282 kts | 40° |
| 2026-05-06 18:28 | 51.97443 | 4.21753 | 8353 ft | 280 kts | 38° |
| 2026-05-06 18:29 | 51.99113 | 4.23211 | 7966 ft | 276 kts | 13° |
| 2026-05-06 18:29 | 52.01000 | 4.23597 | 7656 ft | 272 kts | 4° |
| 2026-05-06 18:29 | 52.02879 | 4.23748 | 7205 ft | 268 kts | 3° |
| 2026-05-06 18:29 | 52.04732 | 4.23859 | 6654 ft | 266 kts | 2° |
| 2026-05-06 18:30 | 52.06572 | 4.23955 | 6081 ft | 264 kts | 2° |
| 2026-05-06 18:30 | 52.08403 | 4.24039 | 5421 ft | 261 kts | 3° |
| 2026-05-06 18:30 | 52.10203 | 4.24100 | 4780 ft | 257 kts | 2° |
| 2026-05-06 18:30 | 52.11946 | 4.24511 | 4117 ft | 252 kts | 24° |
| 2026-05-06 18:31 | 52.13452 | 4.25921 | 3475 ft | 248 kts | 38° |
| 2026-05-06 18:31 | 52.14488 | 4.28030 | 3111 ft | 230 kts | 63° |
| 2026-05-06 18:31 | 52.14915 | 4.30415 | 3057 ft | 217 kts | 79° |
| 2026-05-06 18:31 | 52.15146 | 4.32802 | 3050 ft | 216 kts | 74° |
| 2026-05-06 18:32 | 52.15521 | 4.35173 | 3050 ft | 217 kts | 78° |
| 2026-05-06 18:32 | 52.15739 | 4.37612 | 3086 ft | 218 kts | 81° |
| 2026-05-06 18:32 | 52.15963 | 4.40044 | 3043 ft | 216 kts | 71° |
| 2026-05-06 18:32 | 52.16652 | 4.42123 | 3029 ft | 200 kts | 57° |
| 2026-05-06 18:33 | 52.17376 | 4.43946 | 3037 ft | 184 kts | 57° |
| 2026-05-06 18:33 | 52.18045 | 4.45650 | 3038 ft | 175 kts | 56° |
| 2026-05-06 18:33 | 52.18678 | 4.47272 | 3066 ft | 164 kts | 57° |
| 2026-05-06 18:33 | 52.19280 | 4.48820 | 3054 ft | 160 kts | 57° |
| 2026-05-06 18:34 | 52.19865 | 4.50325 | 3041 ft | 160 kts | 57° |
| 2026-05-06 18:34 | 52.20452 | 4.51835 | 3028 ft | 156 kts | 57° |
| 2026-05-06 18:34 | 52.21032 | 4.53330 | 2905 ft | 157 kts | 56° |
| 2026-05-06 18:34 | 52.21615 | 4.54833 | 2710 ft | 158 kts | 56° |
| 2026-05-06 18:35 | 52.22193 | 4.56326 | 2513 ft | 154 kts | 56° |
| 2026-05-06 18:35 | 52.22765 | 4.57802 | 2301 ft | 153 kts | 56° |
| 2026-05-06 18:35 | 52.23331 | 4.59263 | 2090 ft | 152 kts | 57° |
| 2026-05-06 18:35 | 52.23891 | 4.60723 | 1847 ft | 151 kts | 57° |
| 2026-05-06 18:36 | 52.24449 | 4.62163 | 1657 ft | 149 kts | 55° |
| 2026-05-06 18:36 | 52.24999 | 4.63593 | 1500 ft | 148 kts | 57° |
| 2026-05-06 18:36 | 52.25527 | 4.65027 | 1311 ft | 147 kts | 56° |
| 2026-05-06 18:36 | 52.26080 | 4.66447 | 1102 ft | 149 kts | 56° |
| 2026-05-06 18:37 | 52.26634 | 4.67851 | 945 ft | 150 kts | 56° |
| 2026-05-06 18:37 | 52.27010 | 4.68819 | 792 ft | 148 kts | 56° |
| 2026-05-06 18:37 | 52.27721 | 4.70694 | 536 ft | 143 kts | 53° |
| 2026-05-06 18:37 | 52.28256 | 4.72051 | 324 ft | 145 kts | 54° |
| 2026-05-06 18:38 | 52.28789 | 4.73428 | 89 ft | 143 kts | 57° |
| 2026-05-06 18:38 | 52.29297 | 4.74768 | 11 ft | 132 kts | 53° |
| 2026-05-06 18:38 | 52.29700 | 4.75753 | -2 ft | 74 kts | 59° |
| 2026-05-06 18:38 | 52.29929 | 4.76380 | -4 ft | 54 kts | 60° |
| 2026-05-06 18:39 | 52.30114 | 4.76859 | -2 ft | 47 kts | 56° |
| 2026-05-06 18:39 | 52.30292 | 4.77281 | -4 ft | 40 kts | 46° |
| 2026-05-06 18:39 | 52.30457 | 4.77399 | -2 ft | 8 kts | 357° |
| 2026-05-06 18:40 | 52.30504 | 4.77381 | -1 ft | 8 kts | 337° |
| 2026-05-06 18:40 | 52.30569 | 4.77263 | -1 ft | 19 kts | 272° |
| 2026-05-06 18:40 | 52.30515 | 4.77087 | -1 ft | 13 kts | 240° |
| 2026-05-06 18:40 | 52.30532 | 4.76953 | -1 ft | 15 kts | 315° |
| 2026-05-06 18:41 | 52.30622 | 4.76810 | -1 ft | 19 kts | 321° |
| 2026-05-06 18:41 | 52.30631 | 4.76644 | -1 ft | 7 kts | 232° |
| 2026-05-06 18:41 | 52.30628 | 4.76635 | -1 ft | 0 kts | 233° |